createdAt,value
2017-05-21T00:01:33.027Z,10.80
2017-05-21T00:04:01.792Z,10.80
2017-05-21T00:06:30.563Z,10.60
2017-05-21T00:08:59.351Z,10.70
2017-05-21T00:11:28.111Z,10.70
2017-05-21T00:13:56.879Z,10.60
2017-05-21T00:16:25.655Z,10.50
2017-05-21T00:18:54.419Z,10.40
2017-05-21T00:21:23.231Z,10.40
2017-05-21T00:23:51.963Z,10.20
2017-05-21T00:26:20.723Z,9.70
2017-05-21T00:28:49.483Z,9.60
2017-05-21T00:31:19.151Z,9.50
2017-05-21T00:33:47.911Z,9.60
2017-05-21T00:36:16.671Z,9.70
2017-05-21T00:38:45.438Z,9.70
2017-05-21T00:41:14.195Z,9.90
2017-05-21T00:43:44.899Z,10.00
2017-05-21T00:46:13.658Z,10.00
2017-05-21T00:48:42.423Z,10.00
2017-05-21T00:51:14.618Z,9.80
2017-05-21T00:53:43.379Z,9.90
2017-05-21T00:56:13.043Z,10.00
2017-05-21T00:58:41.815Z,9.90
2017-05-21T01:01:10.575Z,9.80
2017-05-21T01:03:39.339Z,9.90
2017-05-21T01:06:08.110Z,9.90
2017-05-21T01:08:36.875Z,9.90
2017-05-21T01:11:05.655Z,10.00
2017-05-21T01:13:34.439Z,10.00
2017-05-21T01:16:03.202Z,10.10
2017-05-21T01:18:31.958Z,9.90
2017-05-21T01:21:00.734Z,9.50
2017-05-21T01:23:29.494Z,9.40
2017-05-21T01:25:58.257Z,9.50
2017-05-21T01:28:27.935Z,9.30
2017-05-21T01:30:56.695Z,9.30
2017-05-21T01:33:25.446Z,9.20
2017-05-21T01:35:54.218Z,9.10
2017-05-21T01:38:22.999Z,9.10
2017-05-21T01:40:51.746Z,9.00
2017-05-21T01:43:19.760Z,9.00
2017-05-21T01:45:48.522Z,8.80
2017-05-21T01:48:17.279Z,8.80
2017-05-21T01:50:46.050Z,8.80
2017-05-21T01:53:14.814Z,8.70
2017-05-21T01:55:43.583Z,8.50
2017-05-21T01:58:12.370Z,8.60
2017-05-21T02:00:41.129Z,8.70
2017-05-21T02:03:09.885Z,8.80
2017-05-21T02:05:38.669Z,8.80
2017-05-21T02:08:07.430Z,8.70
2017-05-21T02:10:36.206Z,8.60
2017-05-21T02:13:04.998Z,8.70
2017-05-21T02:15:33.754Z,8.80
2017-05-21T02:18:02.525Z,8.80
2017-05-21T02:20:31.297Z,8.80
2017-05-21T02:23:00.057Z,8.80
2017-05-21T02:25:28.817Z,8.90
2017-05-21T02:27:57.586Z,8.90
2017-05-21T02:30:26.346Z,9.00
2017-05-21T02:32:55.109Z,9.20
2017-05-21T02:35:23.889Z,9.20
2017-05-21T02:37:52.649Z,9.20
2017-05-21T02:40:21.405Z,9.20
2017-05-21T02:42:50.174Z,9.10
2017-05-21T02:45:18.934Z,8.90
2017-05-21T02:47:47.689Z,8.80
2017-05-21T02:50:16.489Z,8.80
2017-05-21T02:52:45.241Z,8.80
2017-05-21T02:55:13.993Z,8.90
2017-05-21T02:57:42.761Z,8.90
2017-05-21T03:00:11.529Z,8.90
2017-05-21T03:02:40.293Z,8.80
2017-05-21T03:05:09.094Z,8.60
2017-05-21T03:07:39.757Z,8.50
2017-05-21T03:10:08.541Z,8.50
2017-05-21T03:12:37.317Z,8.60
2017-05-21T03:15:06.073Z,8.80
2017-05-21T03:17:34.834Z,8.90
2017-05-21T03:20:03.621Z,9.00
2017-05-21T03:22:32.381Z,9.20
2017-05-21T03:25:01.141Z,9.20
2017-05-21T03:27:29.921Z,9.20
2017-05-21T03:29:58.681Z,9.10
2017-05-21T03:32:27.441Z,8.80
2017-05-21T03:34:56.213Z,8.80
2017-05-21T03:37:24.970Z,8.90
2017-05-21T03:39:53.737Z,8.90
2017-05-21T03:42:22.504Z,8.40
2017-05-21T03:44:51.268Z,8.30
2017-05-21T03:47:20.029Z,8.40
2017-05-21T03:49:48.796Z,8.50
2017-05-21T03:52:17.556Z,8.50
2017-05-21T03:54:46.317Z,8.30
2017-05-21T03:57:15.104Z,8.30
2017-05-21T03:59:43.868Z,8.40
2017-05-21T04:02:12.628Z,8.30
2017-05-21T04:04:41.397Z,8.40
2017-05-21T04:07:10.160Z,8.30
2017-05-21T04:09:38.924Z,8.50
2017-05-21T04:12:07.692Z,8.50
2017-05-21T04:14:36.508Z,8.70
2017-05-21T04:17:05.233Z,8.80
2017-05-21T04:19:34.024Z,8.90
2017-05-21T04:22:02.783Z,8.80
2017-05-21T04:24:32.528Z,8.80
2017-05-21T04:27:01.300Z,9.00
2017-05-21T04:29:30.064Z,9.10
2017-05-21T04:31:58.824Z,9.20
2017-05-21T04:34:27.616Z,9.20
2017-05-21T04:36:56.376Z,9.20
2017-05-21T04:39:25.137Z,9.10
2017-05-21T04:41:53.920Z,9.10
2017-05-21T04:44:22.684Z,9.30
2017-05-21T04:46:51.443Z,9.50
2017-05-21T04:49:20.244Z,9.70
2017-05-21T04:51:49.000Z,9.90
2017-05-21T04:54:17.771Z,10.00
2017-05-21T04:56:46.543Z,10.10
2017-05-21T04:59:15.319Z,10.30
2017-05-21T05:01:44.083Z,10.50
2017-05-21T05:04:12.863Z,10.70
2017-05-21T05:06:41.628Z,10.70
2017-05-21T05:09:10.395Z,10.60
2017-05-21T05:11:39.231Z,10.80
2017-05-21T05:14:07.964Z,10.80
2017-05-21T05:16:36.727Z,10.70
2017-05-21T05:19:05.511Z,10.90
2017-05-21T05:21:34.283Z,11.10
2017-05-21T05:24:03.951Z,11.00
2017-05-21T05:26:32.764Z,11.10
2017-05-21T05:29:01.535Z,11.20
2017-05-21T05:31:30.315Z,11.30
2017-05-21T05:33:59.115Z,11.40
2017-05-21T05:36:27.881Z,11.50
2017-05-21T05:38:57.587Z,11.60
2017-05-21T05:41:26.355Z,11.70
2017-05-21T05:43:56.099Z,11.80
2017-05-21T05:46:25.811Z,11.90
2017-05-21T05:48:54.584Z,11.80
2017-05-21T05:51:22.586Z,11.80
2017-05-21T05:53:51.371Z,12.10
2017-05-21T05:56:20.135Z,12.40
2017-05-21T05:58:48.902Z,12.50
2017-05-21T06:01:17.683Z,12.70
2017-05-21T06:03:46.467Z,12.60
2017-05-21T06:06:15.235Z,12.60
2017-05-21T06:08:44.023Z,12.80
2017-05-21T06:11:12.799Z,12.90
2017-05-21T06:13:41.570Z,13.00
2017-05-21T06:16:10.355Z,13.00
2017-05-21T06:18:39.124Z,13.00
2017-05-21T06:21:08.787Z,13.10
2017-05-21T06:23:38.475Z,13.10
2017-05-21T06:26:07.247Z,13.20
2017-05-21T06:28:36.014Z,13.40
2017-05-21T06:31:06.767Z,13.50
2017-05-21T06:33:35.542Z,13.50
2017-05-21T06:36:04.315Z,13.70
2017-05-21T06:38:33.090Z,13.90
2017-05-21T06:41:01.862Z,14.00
2017-05-21T06:43:30.642Z,13.90
2017-05-21T06:45:59.442Z,14.10
2017-05-21T06:48:28.215Z,14.20
2017-05-21T06:50:56.991Z,14.40
2017-05-21T06:53:25.782Z,14.40
2017-05-21T06:55:54.563Z,14.40
2017-05-21T06:58:23.326Z,14.50
2017-05-21T07:00:52.098Z,14.60
2017-05-21T07:03:20.870Z,14.70
2017-05-21T07:05:49.638Z,15.00
2017-05-21T07:08:18.413Z,15.20
2017-05-21T07:10:47.186Z,15.30
2017-05-21T07:13:15.958Z,15.40
2017-05-21T07:15:44.741Z,15.60
2017-05-21T07:20:48.670Z,15.50
2017-05-21T07:23:17.434Z,15.70
2017-05-21T07:25:46.210Z,15.70
2017-05-21T07:28:15.002Z,15.90
2017-05-21T07:30:43.765Z,16.00
2017-05-21T07:33:12.533Z,16.10
2017-05-21T07:35:41.322Z,16.10
2017-05-21T07:38:10.090Z,16.20
2017-05-21T07:40:38.905Z,16.20
2017-05-21T07:43:07.689Z,16.40
2017-05-21T07:45:36.449Z,16.60
2017-05-21T07:48:05.214Z,16.80
2017-05-21T07:50:33.985Z,16.70
2017-05-21T07:53:02.753Z,16.70
2017-05-21T07:55:31.517Z,16.90
2017-05-21T07:58:00.297Z,17.10
2017-05-21T08:00:29.074Z,17.20
2017-05-21T08:02:57.841Z,17.30
2017-05-21T08:05:26.612Z,17.20
2017-05-21T08:07:55.377Z,17.40
2017-05-21T08:10:24.141Z,17.20
2017-05-21T08:12:52.921Z,17.30
2017-05-21T08:15:21.696Z,17.10
2017-05-21T08:17:50.469Z,17.20
2017-05-21T08:20:19.242Z,17.30
2017-05-21T08:22:48.012Z,17.20
2017-05-21T08:25:16.785Z,17.30
2017-05-21T08:27:45.577Z,17.40
2017-05-21T08:30:14.357Z,17.20
2017-05-21T08:32:44.091Z,17.30
2017-05-21T08:35:14.821Z,17.40
2017-05-21T08:37:43.585Z,17.50
2017-05-21T08:40:12.349Z,17.60
2017-05-21T08:42:41.125Z,17.60
2017-05-21T08:45:09.893Z,17.50
2017-05-21T08:47:38.935Z,17.50
2017-05-21T08:50:09.705Z,17.50
2017-05-21T08:52:38.969Z,17.60
2017-05-21T08:55:08.957Z,17.80
2017-05-21T08:57:39.196Z,18.10
2017-05-21T09:00:09.401Z,18.20
2017-05-21T09:02:40.664Z,18.20
2017-05-21T09:05:09.892Z,18.60
2017-05-21T09:07:39.978Z,18.70
2017-05-21T09:10:10.241Z,18.50
2017-05-21T09:12:39.407Z,18.40
2017-05-21T09:15:08.552Z,18.70
2017-05-21T09:17:37.718Z,18.90
2017-05-21T09:20:06.484Z,19.20
2017-05-21T09:22:35.244Z,18.90
2017-05-21T09:25:04.820Z,18.90
2017-05-21T09:27:33.596Z,19.20
2017-05-21T09:30:02.356Z,19.00
2017-05-21T09:32:31.144Z,19.20
2017-05-21T09:34:59.928Z,19.70
2017-05-21T09:37:28.688Z,20.20
2017-05-21T09:39:57.505Z,20.20
2017-05-21T09:42:26.273Z,20.20
2017-05-21T09:44:55.045Z,20.20
2017-05-21T09:47:23.880Z,20.20
2017-05-21T09:49:53.601Z,20.00
2017-05-21T09:52:22.364Z,20.00
2017-05-21T09:54:51.144Z,20.10
2017-05-21T09:57:19.907Z,20.10
2017-05-21T09:59:48.692Z,19.90
2017-05-21T10:02:17.467Z,19.80
2017-05-21T10:04:46.232Z,20.30
2017-05-21T10:07:15.017Z,20.50
2017-05-21T10:09:44.729Z,20.90
2017-05-21T10:12:13.497Z,20.90
2017-05-21T10:14:42.267Z,20.60
2017-05-21T10:17:11.036Z,20.40
2017-05-21T10:19:39.803Z,20.40
2017-05-21T10:22:07.827Z,20.40
2017-05-21T10:24:36.615Z,20.40
2017-05-21T10:27:05.439Z,20.20
2017-05-21T10:29:34.151Z,20.30
2017-05-21T10:32:02.935Z,20.30
2017-05-21T10:34:32.587Z,20.50
2017-05-21T10:37:04.891Z,20.70
2017-05-21T10:39:33.655Z,20.80
2017-05-21T10:42:05.523Z,20.40
2017-05-21T10:44:36.255Z,20.50
2017-05-21T10:47:05.968Z,20.70
2017-05-21T10:49:34.747Z,20.50
2017-05-21T10:52:03.679Z,20.60
2017-05-21T10:54:33.471Z,20.90
2017-05-21T10:57:03.163Z,21.00
2017-05-21T10:59:31.943Z,21.00
2017-05-21T11:02:02.767Z,21.00
2017-05-21T11:04:32.515Z,21.10
2017-05-21T11:07:01.287Z,21.20
2017-05-21T11:09:30.252Z,21.40
2017-05-21T11:11:59.075Z,21.70
2017-05-21T11:14:27.868Z,21.50
2017-05-21T11:16:56.720Z,21.40
2017-05-21T11:19:25.531Z,20.80
2017-05-21T11:21:54.307Z,21.00
2017-05-21T11:24:23.195Z,21.40
2017-05-21T11:26:51.991Z,21.90
2017-05-21T11:29:20.831Z,21.80
2017-05-21T11:31:49.671Z,21.60
2017-05-21T11:34:18.503Z,21.50
2017-05-21T11:36:47.344Z,21.30
2017-05-21T11:39:16.180Z,21.10
2017-05-21T11:41:45.007Z,21.10
2017-05-21T11:44:13.788Z,21.00
2017-05-21T11:46:42.602Z,20.90
2017-05-21T11:49:10.595Z,20.90
2017-05-21T11:51:40.302Z,20.50
2017-05-21T11:54:10.078Z,20.70
2017-05-21T11:56:38.858Z,20.40
2017-05-21T11:59:07.610Z,20.60
2017-05-21T12:01:36.442Z,20.60
2017-05-21T12:04:05.239Z,20.30
2017-05-21T12:06:34.958Z,20.30
2017-05-21T12:09:03.747Z,20.50
2017-05-21T12:11:32.634Z,20.60
2017-05-21T12:14:01.382Z,20.80
2017-05-21T12:16:30.202Z,21.00
2017-05-21T12:18:59.982Z,21.20
2017-05-21T12:21:28.763Z,21.30
2017-05-21T12:23:57.615Z,21.30
2017-05-21T12:26:26.422Z,21.40
2017-05-21T12:28:55.263Z,21.70
2017-05-21T12:31:24.078Z,22.00
2017-05-21T12:33:52.934Z,22.10
2017-05-21T12:36:21.750Z,22.20
2017-05-21T12:38:50.630Z,22.00
2017-05-21T12:41:19.438Z,21.80
2017-05-21T12:43:48.291Z,21.60
2017-05-21T12:46:17.142Z,21.40
2017-05-21T12:48:45.958Z,21.50
2017-05-21T12:51:14.719Z,21.60
2017-05-21T12:53:43.629Z,21.50
2017-05-21T12:56:12.390Z,21.60
2017-05-21T12:58:41.261Z,21.80
2017-05-21T13:01:10.081Z,21.80
2017-05-21T13:03:38.894Z,21.70
2017-05-21T13:06:07.746Z,21.40
2017-05-21T13:08:36.570Z,21.40
2017-05-21T13:11:05.433Z,21.20
2017-05-21T13:13:34.218Z,21.20
2017-05-21T13:16:03.230Z,20.90
2017-05-21T13:18:32.298Z,21.20
2017-05-21T13:21:01.234Z,21.10
2017-05-21T13:23:30.225Z,21.20
2017-05-21T13:25:59.066Z,21.20
2017-05-21T13:28:27.829Z,21.00
2017-05-21T13:30:56.670Z,21.10
2017-05-21T13:33:25.547Z,21.10
2017-05-21T13:35:56.253Z,21.10
2017-05-21T13:38:25.125Z,21.10
2017-05-21T13:40:53.905Z,20.90
2017-05-21T13:43:23.717Z,20.90
2017-05-21T13:45:55.853Z,21.00
2017-05-21T13:48:25.053Z,21.00
2017-05-21T13:50:54.845Z,21.10
2017-05-21T13:53:29.313Z,20.90
2017-05-21T13:55:57.125Z,21.00
2017-05-21T13:58:23.389Z,21.00
2017-05-21T14:00:50.348Z,20.60
2017-05-21T14:03:17.501Z,20.70
2017-05-21T14:05:44.545Z,20.70
2017-05-21T14:08:11.552Z,20.60
2017-05-21T14:10:40.584Z,20.70
2017-05-21T14:13:06.696Z,20.60
2017-05-21T14:15:33.592Z,20.60
2017-05-21T14:18:00.533Z,20.70
2017-05-21T14:20:26.724Z,20.70
2017-05-21T14:22:53.844Z,20.70
2017-05-21T14:25:20.748Z,20.70
2017-05-21T14:27:47.702Z,20.50
2017-05-21T14:30:14.608Z,20.70
2017-05-21T14:32:41.441Z,20.70
2017-05-21T14:35:08.324Z,20.90
2017-05-21T14:37:35.170Z,20.90
2017-05-21T14:40:01.983Z,20.60
2017-05-21T14:42:28.808Z,20.50
2017-05-21T14:44:55.728Z,20.40
2017-05-21T14:47:22.594Z,20.40
2017-05-21T14:49:49.388Z,20.40
2017-05-21T14:52:16.237Z,20.60
2017-05-21T14:54:43.096Z,20.60
2017-05-21T14:57:09.948Z,20.40
2017-05-21T14:59:39.232Z,20.30
2017-05-21T15:02:05.996Z,20.50
2017-05-21T15:04:32.796Z,20.50
2017-05-21T15:06:59.611Z,20.50
2017-05-21T15:09:26.396Z,20.50
2017-05-21T15:11:53.172Z,20.60
2017-05-21T15:14:20.068Z,20.50
2017-05-21T15:16:46.895Z,20.50
2017-05-21T15:19:13.989Z,20.50
2017-05-21T15:21:47.200Z,20.50
2017-05-21T15:24:18.179Z,20.60
2017-05-21T15:26:44.972Z,20.40
2017-05-21T15:29:11.804Z,20.30
2017-05-21T15:31:40.671Z,20.30
2017-05-21T15:34:08.572Z,20.40
2017-05-21T15:36:35.404Z,20.40
2017-05-21T15:39:02.312Z,20.20
2017-05-21T15:41:31.156Z,20.00
2017-05-21T15:43:57.967Z,20.10
2017-05-21T15:46:31.664Z,20.10
2017-05-21T15:48:58.531Z,20.10
2017-05-21T15:51:25.355Z,20.20
2017-05-21T15:53:52.195Z,20.30
2017-05-21T15:56:19.035Z,20.30
2017-05-21T15:58:45.960Z,20.30
2017-05-21T16:01:12.899Z,20.20
2017-05-21T16:03:40.812Z,20.10
2017-05-21T16:06:07.639Z,20.40
2017-05-21T16:08:34.471Z,20.50
2017-05-21T16:11:01.323Z,20.40
2017-05-21T16:13:28.268Z,20.20
2017-05-21T16:15:56.172Z,20.20
2017-05-21T16:18:23.081Z,20.10
2017-05-21T16:20:51.031Z,19.90
2017-05-21T16:23:21.628Z,19.80
2017-05-21T16:25:48.639Z,19.70
2017-05-21T16:28:15.735Z,19.70
2017-05-21T16:30:43.795Z,19.40
2017-05-21T16:33:10.787Z,19.40
2017-05-21T16:35:37.771Z,19.40
2017-05-21T16:38:04.675Z,19.50
2017-05-21T16:40:31.699Z,19.50
2017-05-21T16:43:03.859Z,19.40
2017-05-21T16:45:31.847Z,19.30
2017-05-21T16:47:58.819Z,19.40
2017-05-21T16:50:25.795Z,19.30
2017-05-21T16:52:52.879Z,19.30
2017-05-21T16:55:21.983Z,19.20
2017-05-21T16:57:50.059Z,19.10
2017-05-21T17:00:17.022Z,19.10
2017-05-21T17:02:43.987Z,19.00
2017-05-21T17:05:10.999Z,19.20
2017-05-21T17:07:38.059Z,19.30
2017-05-21T17:10:04.903Z,19.30
2017-05-21T17:12:32.863Z,19.40
2017-05-21T17:15:00.782Z,19.50
2017-05-21T17:17:27.871Z,19.30
2017-05-21T17:19:54.791Z,19.30
2017-05-21T17:22:21.698Z,19.40
2017-05-21T17:24:48.611Z,19.40
2017-05-21T17:27:15.538Z,19.30
2017-05-21T17:29:42.447Z,19.40
2017-05-21T17:32:10.403Z,19.50
2017-05-21T17:34:37.491Z,19.50
2017-05-21T17:37:04.446Z,19.40
2017-05-21T17:39:31.356Z,19.30
2017-05-21T17:41:58.310Z,19.50
2017-05-21T17:44:25.339Z,19.40
2017-05-21T17:46:52.290Z,19.50
2017-05-21T17:49:19.351Z,19.30
2017-05-21T17:51:46.287Z,19.20
2017-05-21T17:54:13.259Z,19.20
2017-05-21T17:56:40.222Z,19.10
2017-05-21T17:59:07.126Z,18.90
2017-05-21T18:01:33.994Z,18.90
2017-05-21T18:04:00.995Z,19.00
2017-05-21T18:06:28.906Z,18.90
2017-05-21T18:08:55.726Z,18.80
2017-05-21T18:11:22.630Z,18.80
2017-05-21T18:13:49.674Z,18.80
2017-05-21T18:16:16.446Z,18.70
2017-05-21T18:18:45.345Z,18.60
2017-05-21T18:21:12.250Z,18.60
2017-05-21T18:23:39.166Z,18.50
2017-05-21T18:26:06.078Z,18.50
2017-05-21T18:28:33.014Z,18.30
2017-05-21T18:30:59.981Z,18.10
2017-05-21T18:33:26.941Z,18.10
2017-05-21T18:35:53.849Z,18.10
2017-05-21T18:38:20.697Z,18.00
2017-05-21T18:40:47.573Z,18.00
2017-05-21T18:43:14.493Z,17.90
2017-05-21T18:45:56.257Z,17.80
2017-05-21T18:48:23.122Z,17.80
2017-05-21T18:50:49.957Z,17.70
2017-05-21T18:53:16.794Z,17.70
2017-05-21T18:55:43.601Z,17.60
2017-05-21T18:58:10.389Z,17.60
2017-05-21T19:00:37.213Z,17.50
2017-05-21T19:03:03.501Z,17.50
2017-05-21T19:05:30.309Z,17.30
2017-05-21T19:07:57.130Z,17.40
2017-05-21T19:10:23.941Z,17.40
2017-05-21T19:12:50.729Z,17.30
2017-05-21T19:15:17.529Z,17.30
2017-05-21T19:17:44.417Z,17.20
2017-05-21T19:20:11.217Z,17.10
2017-05-21T19:22:37.281Z,17.20
2017-05-21T19:25:14.117Z,16.90
2017-05-21T19:27:40.997Z,16.80
2017-05-21T19:30:07.893Z,16.70
2017-05-21T19:32:34.729Z,16.60
2017-05-21T19:35:00.820Z,16.60
2017-05-21T19:37:27.625Z,16.40
2017-05-21T19:39:54.489Z,16.30
2017-05-21T19:42:21.365Z,16.10
2017-05-21T19:44:48.321Z,16.10
2017-05-21T19:47:15.292Z,16.20
2017-05-21T19:49:42.181Z,16.10
2017-05-21T19:52:10.095Z,16.10
2017-05-21T19:54:42.757Z,16.00
2017-05-21T19:57:09.793Z,15.80
2017-05-21T19:59:36.789Z,15.60
2017-05-21T20:02:03.673Z,15.50
2017-05-21T20:04:36.361Z,15.50
2017-05-21T20:07:04.228Z,15.50
2017-05-21T20:09:32.648Z,15.50
2017-05-21T20:12:12.040Z,15.50
2017-05-21T20:14:43.688Z,15.50
2017-05-21T20:17:30.188Z,15.60
2017-05-21T20:20:01.652Z,15.60
2017-05-21T20:22:27.731Z,15.60
2017-05-21T20:24:54.540Z,15.60
2017-05-21T20:27:21.352Z,15.60
2017-05-21T20:29:48.168Z,15.60
2017-05-21T20:32:15.020Z,15.60
2017-05-21T20:34:41.868Z,15.60
2017-05-21T20:37:08.992Z,15.60
2017-05-21T20:39:41.504Z,15.60
2017-05-21T20:42:12.740Z,15.60
2017-05-21T20:44:43.099Z,15.60
2017-05-21T20:47:21.689Z,15.60
2017-05-21T20:49:48.559Z,15.50
2017-05-21T20:52:15.355Z,15.50
2017-05-21T20:54:50.369Z,15.40
2017-05-21T20:57:19.787Z,15.30
2017-05-21T20:59:50.123Z,15.30
2017-05-21T21:02:18.017Z,15.30
2017-05-21T21:04:45.971Z,15.20
2017-05-21T21:07:17.667Z,15.20
2017-05-21T21:09:57.376Z,15.20
2017-05-21T21:12:30.883Z,15.20
2017-05-21T21:15:01.363Z,15.20
2017-05-21T21:17:29.253Z,15.20
2017-05-21T21:19:58.176Z,15.10
2017-05-21T21:22:26.039Z,15.10
2017-05-21T21:24:57.535Z,15.10
2017-05-21T21:27:24.363Z,15.00
2017-05-21T21:29:56.187Z,15.00
2017-05-21T21:32:33.467Z,15.10
2017-05-21T21:35:00.267Z,15.00
2017-05-21T21:40:21.487Z,15.10
2017-05-21T21:42:50.443Z,15.10
2017-05-21T21:45:21.368Z,15.10
2017-05-21T21:47:54.751Z,15.10
2017-05-21T21:50:28.103Z,15.00
2017-05-21T21:55:51.911Z,15.00
2017-05-21T22:01:33.323Z,14.90
2017-05-21T22:04:14.003Z,14.90
2017-05-21T22:06:40.803Z,14.90
2017-05-21T22:09:07.703Z,14.90
2017-05-21T22:11:33.827Z,14.90
2017-05-21T22:14:04.270Z,14.90
2017-05-21T22:16:34.678Z,14.80
2017-05-21T22:19:01.534Z,14.70
2017-05-21T22:21:32.368Z,14.70
2017-05-21T22:24:11.879Z,14.70
2017-05-21T22:26:54.047Z,14.70
2017-05-21T22:29:20.854Z,14.70
2017-05-21T22:31:48.771Z,14.60
2017-05-21T22:34:23.682Z,14.60
2017-05-21T22:36:50.530Z,14.60
2017-05-21T22:39:17.439Z,14.50
2017-05-21T22:41:44.343Z,14.50
2017-05-21T22:44:11.194Z,14.50
2017-05-21T22:46:38.130Z,14.40
2017-05-21T22:51:41.454Z,14.30
2017-05-21T22:54:09.613Z,14.40
2017-05-21T22:56:36.620Z,14.40
2017-05-21T22:59:05.802Z,14.40
2017-05-21T23:01:32.674Z,14.40
2017-05-21T23:03:59.638Z,14.30
2017-05-21T23:06:26.670Z,14.20
2017-05-21T23:08:53.698Z,14.10
2017-05-21T23:11:20.594Z,14.00
2017-05-21T23:13:47.514Z,13.90
2017-05-21T23:16:17.766Z,13.90
2017-05-21T23:18:44.634Z,14.00
2017-05-21T23:21:11.510Z,14.00
2017-05-21T23:23:38.326Z,14.10
2017-05-21T23:26:27.842Z,14.00
2017-05-21T23:28:54.707Z,14.00
2017-05-21T23:31:27.690Z,14.00
2017-05-21T23:33:59.630Z,14.00
2017-05-21T23:36:27.562Z,14.10
2017-05-21T23:39:02.150Z,14.00
2017-05-21T23:41:32.545Z,14.00
2017-05-21T23:44:03.298Z,14.00
2017-05-21T23:46:33.738Z,14.00
2017-05-21T23:49:06.121Z,14.00
2017-05-21T23:51:32.990Z,13.90
2017-05-21T23:54:04.961Z,13.80
2017-05-21T23:56:31.878Z,13.80
2017-05-21T23:58:58.753Z,13.80
